sensor_id;sensor_type;location;lat;lon;timestamp;P1;durP1;ratioP1;P2;durP2;ratioP2
3503;SDS011;1766;53.490;10.174;2023-03-01T00:00:22;12.47;;;6.13;;
3503;SDS011;1766;53.490;10.174;2023-03-01T00:02:24;11.77;;;6.13;;
3503;SDS011;1766;53.490;10.174;2023-03-01T00:04:26;9.57;;;5.77;;
3503;SDS011;1766;53.490;10.174;2023-03-01T00:06:28;13.27;;;6.63;;
3503;SDS011;1766;53.490;10.174;2023-03-01T00:08:30;9.97;;;7.00;;
3503;SDS011;1766;53.490;10.174;2023-03-01T00:10:32;12.63;;;7.53;;
3503;SDS011;1766;53.490;10.174;2023-03-01T00:12:35;12.87;;;7.87;;
3503;SDS011;1766;53.490;10.174;2023-03-01T00:14:37;15.57;;;8.93;;
3503;SDS011;1766;53.490;10.174;2023-03-01T00:16:40;19.57;;;10.33;;
3503;SDS011;1766;53.490;10.174;2023-03-01T00:18:43;20.20;;;10.87;;
3503;SDS011;1766;53.490;10.174;2023-03-01T00:20:49;21.63;;;10.73;;
3503;SDS011;1766;53.490;10.174;2023-03-01T00:22:52;19.67;;;11.30;;
3503;SDS011;1766;53.490;10.174;2023-03-01T00:24:53;21.20;;;11.60;;
3503;SDS011;1766;53.490;10.174;2023-03-01T00:26:55;27.67;;;12.80;;
3503;SDS011;1766;53.490;10.174;2023-03-01T00:28:59;18.23;;;11.00;;
3503;SDS011;1766;53.490;10.174;2023-03-01T00:31:02;20.70;;;11.37;;
3503;SDS011;1766;53.490;10.174;2023-03-01T00:33:05;19.67;;;10.97;;
3503;SDS011;1766;53.490;10.174;2023-03-01T00:35:07;24.87;;;12.57;;
3503;SDS011;1766;53.490;10.174;2023-03-01T00:37:09;25.73;;;12.23;;
3503;SDS011;1766;53.490;10.174;2023-03-01T00:39:12;22.63;;;12.03;;
3503;SDS011;1766;53.490;10.174;2023-03-01T00:41:16;22.13;;;12.57;;
3503;SDS011;1766;53.490;10.174;2023-03-01T00:43:20;24.10;;;12.13;;
3503;SDS011;1766;53.490;10.174;2023-03-01T00:45:24;24.90;;;12.07;;
3503;SDS011;1766;53.490;10.174;2023-03-01T00:47:29;23.23;;;12.43;;
3503;SDS011;1766;53.490;10.174;2023-03-01T00:49:31;22.47;;;12.87;;
3503;SDS011;1766;53.490;10.174;2023-03-01T00:51:32;24.90;;;12.70;;
3503;SDS011;1766;53.490;10.174;2023-03-01T00:53:35;23.77;;;12.00;;
3503;SDS011;1766;53.490;10.174;2023-03-01T00:55:37;24.87;;;12.53;;
3503;SDS011;1766;53.490;10.174;2023-03-01T00:57:39;25.33;;;12.17;;
3503;SDS011;1766;53.490;10.174;2023-03-01T00:59:41;22.10;;;12.20;;
3503;SDS011;1766;53.490;10.174;2023-03-01T01:01:44;27.07;;;13.20;;
3503;SDS011;1766;53.490;10.174;2023-03-01T01:03:46;26.20;;;13.63;;
3503;SDS011;1766;53.490;10.174;2023-03-01T01:05:50;26.67;;;12.90;;
3503;SDS011;1766;53.490;10.174;2023-03-01T01:07:52;21.93;;;12.23;;
3503;SDS011;1766;53.490;10.174;2023-03-01T01:09:54;25.67;;;12.83;;
3503;SDS011;1766;53.490;10.174;2023-03-01T01:11:55;23.07;;;12.33;;
3503;SDS011;1766;53.490;10.174;2023-03-01T01:13:57;22.13;;;12.03;;
3503;SDS011;1766;53.490;10.174;2023-03-01T01:16:00;23.17;;;12.03;;
3503;SDS011;1766;53.490;10.174;2023-03-01T01:18:03;23.03;;;12.60;;
3503;SDS011;1766;53.490;10.174;2023-03-01T01:20:06;20.93;;;11.70;;
3503;SDS011;1766;53.490;10.174;2023-03-01T01:22:09;23.20;;;12.53;;
3503;SDS011;1766;53.490;10.174;2023-03-01T01:24:11;22.40;;;11.63;;
3503;SDS011;1766;53.490;10.174;2023-03-01T01:26:17;24.30;;;12.57;;
3503;SDS011;1766;53.490;10.174;2023-03-01T01:28:21;21.10;;;12.30;;
3503;SDS011;1766;53.490;10.174;2023-03-01T01:30:23;22.27;;;11.43;;
3503;SDS011;1766;53.490;10.174;2023-03-01T01:32:24;20.87;;;11.40;;
3503;SDS011;1766;53.490;10.174;2023-03-01T01:34:28;22.67;;;12.33;;
3503;SDS011;1766;53.490;10.174;2023-03-01T01:36:29;26.63;;;11.47;;
3503;SDS011;1766;53.490;10.174;2023-03-01T01:38:32;25.90;;;12.07;;
3503;SDS011;1766;53.490;10.174;2023-03-01T01:40:34;19.63;;;11.40;;
3503;SDS011;1766;53.490;10.174;2023-03-01T01:42:44;20.37;;;11.30;;
3503;SDS011;1766;53.490;10.174;2023-03-01T01:44:46;26.07;;;11.07;;
3503;SDS011;1766;53.490;10.174;2023-03-01T01:46:49;20.67;;;11.90;;
3503;SDS011;1766;53.490;10.174;2023-03-01T01:48:54;24.03;;;10.57;;
3503;SDS011;1766;53.490;10.174;2023-03-01T01:51:02;17.97;;;11.03;;
3503;SDS011;1766;53.490;10.174;2023-03-01T01:53:05;27.53;;;10.77;;
3503;SDS011;1766;53.490;10.174;2023-03-01T01:55:14;20.20;;;10.20;;
3503;SDS011;1766;53.490;10.174;2023-03-01T01:57:21;18.17;;;9.90;;
3503;SDS011;1766;53.490;10.174;2023-03-01T01:59:27;19.27;;;9.77;;
3503;SDS011;1766;53.490;10.174;2023-03-01T02:01:32;19.83;;;9.60;;
3503;SDS011;1766;53.490;10.174;2023-03-01T02:03:34;19.20;;;10.33;;
3503;SDS011;1766;53.490;10.174;2023-03-01T02:05:43;21.33;;;11.03;;
3503;SDS011;1766;53.490;10.174;2023-03-01T02:07:52;20.03;;;10.57;;
3503;SDS011;1766;53.490;10.174;2023-03-01T02:09:54;17.57;;;9.57;;
3503;SDS011;1766;53.490;10.174;2023-03-01T02:12:04;20.83;;;9.60;;
3503;SDS011;1766;53.490;10.174;2023-03-01T02:14:06;15.37;;;9.57;;
3503;SDS011;1766;53.490;10.174;2023-03-01T02:16:09;17.13;;;9.03;;
3503;SDS011;1766;53.490;10.174;2023-03-01T02:18:14;15.13;;;8.60;;
3503;SDS011;1766;53.490;10.174;2023-03-01T02:20:20;18.03;;;9.13;;
3503;SDS011;1766;53.490;10.174;2023-03-01T02:22:28;19.37;;;9.77;;
3503;SDS011;1766;53.490;10.174;2023-03-01T02:24:35;14.83;;;9.03;;
3503;SDS011;1766;53.490;10.174;2023-03-01T02:26:51;13.40;;;8.23;;
3503;SDS011;1766;53.490;10.174;2023-03-01T02:28:57;16.83;;;8.73;;
3503;SDS011;1766;53.490;10.174;2023-03-01T02:31:00;17.30;;;9.37;;
3503;SDS011;1766;53.490;10.174;2023-03-01T02:33:17;16.97;;;8.87;;
3503;SDS011;1766;53.490;10.174;2023-03-01T02:35:19;16.03;;;8.23;;
3503;SDS011;1766;53.490;10.174;2023-03-01T02:37:21;14.23;;;8.90;;
3503;SDS011;1766;53.490;10.174;2023-03-01T02:39:26;18.57;;;9.40;;
3503;SDS011;1766;53.490;10.174;2023-03-01T02:41:34;12.40;;;8.63;;
3503;SDS011;1766;53.490;10.174;2023-03-01T02:43:39;13.63;;;7.97;;
3503;SDS011;1766;53.490;10.174;2023-03-01T02:45:47;15.40;;;8.90;;
3503;SDS011;1766;53.490;10.174;2023-03-01T02:47:50;18.03;;;9.03;;
3503;SDS011;1766;53.490;10.174;2023-03-01T02:49:55;16.47;;;8.33;;
3503;SDS011;1766;53.490;10.174;2023-03-01T02:52:06;18.23;;;8.80;;
3503;SDS011;1766;53.490;10.174;2023-03-01T02:54:23;15.60;;;8.83;;
3503;SDS011;1766;53.490;10.174;2023-03-01T02:56:29;16.97;;;9.10;;
3503;SDS011;1766;53.490;10.174;2023-03-01T02:58:31;11.83;;;7.80;;
3503;SDS011;1766;53.490;10.174;2023-03-01T03:00:41;11.87;;;7.37;;
3503;SDS011;1766;53.490;10.174;2023-03-01T03:02:47;12.80;;;8.37;;
3503;SDS011;1766;53.490;10.174;2023-03-01T03:04:50;14.40;;;8.53;;
3503;SDS011;1766;53.490;10.174;2023-03-01T03:06:52;16.50;;;8.27;;
3503;SDS011;1766;53.490;10.174;2023-03-01T03:08:54;11.90;;;7.77;;
3503;SDS011;1766;53.490;10.174;2023-03-01T03:10:56;13.43;;;7.80;;
3503;SDS011;1766;53.490;10.174;2023-03-01T03:12:59;14.20;;;7.53;;
3503;SDS011;1766;53.490;10.174;2023-03-01T03:15:03;15.20;;;7.83;;
3503;SDS011;1766;53.490;10.174;2023-03-01T03:17:10;17.30;;;7.77;;
3503;SDS011;1766;53.490;10.174;2023-03-01T03:19:11;13.80;;;7.70;;
3503;SDS011;1766;53.490;10.174;2023-03-01T03:21:14;14.13;;;7.47;;
3503;SDS011;1766;53.490;10.174;2023-03-01T03:23:16;11.77;;;7.23;;
3503;SDS011;1766;53.490;10.174;2023-03-01T03:25:19;12.03;;;7.30;;
3503;SDS011;1766;53.490;10.174;2023-03-01T03:27:25;10.17;;;7.70;;
3503;SDS011;1766;53.490;10.174;2023-03-01T03:29:28;15.23;;;7.43;;
3503;SDS011;1766;53.490;10.174;2023-03-01T03:31:30;22.60;;;8.33;;
3503;SDS011;1766;53.490;10.174;2023-03-01T03:33:33;13.73;;;7.87;;
3503;SDS011;1766;53.490;10.174;2023-03-01T03:35:38;15.47;;;7.73;;
3503;SDS011;1766;53.490;10.174;2023-03-01T03:37:42;13.10;;;7.50;;
3503;SDS011;1766;53.490;10.174;2023-03-01T03:39:58;13.23;;;6.97;;
3503;SDS011;1766;53.490;10.174;2023-03-01T03:42:00;12.60;;;7.97;;
3503;SDS011;1766;53.490;10.174;2023-03-01T03:44:02;12.80;;;7.20;;
3503;SDS011;1766;53.490;10.174;2023-03-01T03:46:05;12.83;;;7.17;;
3503;SDS011;1766;53.490;10.174;2023-03-01T03:48:08;16.17;;;7.27;;
3503;SDS011;1766;53.490;10.174;2023-03-01T03:50:12;12.10;;;7.20;;
3503;SDS011;1766;53.490;10.174;2023-03-01T03:52:17;10.33;;;6.73;;
3503;SDS011;1766;53.490;10.174;2023-03-01T03:54:18;12.47;;;6.90;;
3503;SDS011;1766;53.490;10.174;2023-03-01T03:56:20;12.00;;;7.10;;
3503;SDS011;1766;53.490;10.174;2023-03-01T03:58:26;14.40;;;7.70;;
3503;SDS011;1766;53.490;10.174;2023-03-01T04:00:28;12.33;;;7.00;;
3503;SDS011;1766;53.490;10.174;2023-03-01T04:02:29;10.97;;;7.40;;
3503;SDS011;1766;53.490;10.174;2023-03-01T04:04:32;12.13;;;7.60;;
3503;SDS011;1766;53.490;10.174;2023-03-01T04:06:35;14.00;;;7.40;;
3503;SDS011;1766;53.490;10.174;2023-03-01T04:08:37;13.50;;;7.03;;
3503;SDS011;1766;53.490;10.174;2023-03-01T04:10:40;11.93;;;7.67;;
3503;SDS011;1766;53.490;10.174;2023-03-01T04:12:44;15.73;;;7.50;;
3503;SDS011;1766;53.490;10.174;2023-03-01T04:14:46;12.60;;;7.70;;
3503;SDS011;1766;53.490;10.174;2023-03-01T04:16:48;11.63;;;7.23;;
3503;SDS011;1766;53.490;10.174;2023-03-01T04:18:49;11.10;;;7.50;;
3503;SDS011;1766;53.490;10.174;2023-03-01T04:20:52;14.50;;;6.93;;
3503;SDS011;1766;53.490;10.174;2023-03-01T04:22:58;12.07;;;7.07;;
3503;SDS011;1766;53.490;10.174;2023-03-01T04:25:10;14.13;;;7.20;;
3503;SDS011;1766;53.490;10.174;2023-03-01T04:27:17;10.10;;;7.37;;
3503;SDS011;1766;53.490;10.174;2023-03-01T04:29:19;10.13;;;6.63;;
3503;SDS011;1766;53.490;10.174;2023-03-01T04:31:21;11.33;;;7.03;;
3503;SDS011;1766;53.490;10.174;2023-03-01T04:33:23;13.03;;;6.93;;
3503;SDS011;1766;53.490;10.174;2023-03-01T04:35:26;10.63;;;6.33;;
3503;SDS011;1766;53.490;10.174;2023-03-01T04:37:28;11.43;;;7.47;;
3503;SDS011;1766;53.490;10.174;2023-03-01T04:39:31;9.50;;;6.20;;
3503;SDS011;1766;53.490;10.174;2023-03-01T04:41:33;12.27;;;6.87;;
3503;SDS011;1766;53.490;10.174;2023-03-01T04:43:34;13.17;;;7.60;;
3503;SDS011;1766;53.490;10.174;2023-03-01T04:45:37;9.97;;;5.93;;
3503;SDS011;1766;53.490;10.174;2023-03-01T04:47:39;10.70;;;6.27;;
3503;SDS011;1766;53.490;10.174;2023-03-01T04:49:42;10.17;;;6.63;;
3503;SDS011;1766;53.490;10.174;2023-03-01T04:51:44;12.90;;;6.47;;
3503;SDS011;1766;53.490;10.174;2023-03-01T04:53:46;11.57;;;7.13;;
3503;SDS011;1766;53.490;10.174;2023-03-01T04:55:49;10.63;;;6.80;;
3503;SDS011;1766;53.490;10.174;2023-03-01T04:57:51;12.03;;;6.53;;
3503;SDS011;1766;53.490;10.174;2023-03-01T04:59:53;9.63;;;6.80;;
3503;SDS011;1766;53.490;10.174;2023-03-01T05:01:55;12.10;;;6.47;;
3503;SDS011;1766;53.490;10.174;2023-03-01T05:03:57;10.00;;;6.97;;
3503;SDS011;1766;53.490;10.174;2023-03-01T05:06:03;10.47;;;6.37;;
3503;SDS011;1766;53.490;10.174;2023-03-01T05:08:05;12.63;;;6.50;;
3503;SDS011;1766;53.490;10.174;2023-03-01T05:10:09;15.10;;;7.00;;
3503;SDS011;1766;53.490;10.174;2023-03-01T05:12:13;9.87;;;6.13;;
3503;SDS011;1766;53.490;10.174;2023-03-01T05:14:15;12.80;;;7.27;;
3503;SDS011;1766;53.490;10.174;2023-03-01T05:16:17;12.67;;;7.07;;
3503;SDS011;1766;53.490;10.174;2023-03-01T05:18:19;11.23;;;6.33;;
3503;SDS011;1766;53.490;10.174;2023-03-01T05:20:25;10.30;;;6.60;;
3503;SDS011;1766;53.490;10.174;2023-03-01T05:22:28;12.13;;;6.53;;
3503;SDS011;1766;53.490;10.174;2023-03-01T05:24:30;12.20;;;7.20;;
3503;SDS011;1766;53.490;10.174;2023-03-01T05:26:33;13.77;;;6.47;;
3503;SDS011;1766;53.490;10.174;2023-03-01T05:28:41;10.67;;;7.37;;
3503;SDS011;1766;53.490;10.174;2023-03-01T05:30:43;14.13;;;8.03;;
3503;SDS011;1766;53.490;10.174;2023-03-01T05:32:45;11.50;;;8.00;;
3503;SDS011;1766;53.490;10.174;2023-03-01T05:34:49;12.80;;;8.10;;
3503;SDS011;1766;53.490;10.174;2023-03-01T05:36:52;13.23;;;7.80;;
3503;SDS011;1766;53.490;10.174;2023-03-01T05:38:54;10.07;;;6.73;;
3503;SDS011;1766;53.490;10.174;2023-03-01T05:40:56;9.63;;;6.57;;
3503;SDS011;1766;53.490;10.174;2023-03-01T05:42:58;9.40;;;6.17;;
3503;SDS011;1766;53.490;10.174;2023-03-01T05:45:01;9.53;;;6.63;;
3503;SDS011;1766;53.490;10.174;2023-03-01T05:47:03;9.70;;;6.70;;
3503;SDS011;1766;53.490;10.174;2023-03-01T05:49:05;9.13;;;6.27;;
3503;SDS011;1766;53.490;10.174;2023-03-01T05:51:07;11.23;;;6.77;;
3503;SDS011;1766;53.490;10.174;2023-03-01T05:53:10;9.27;;;7.07;;
3503;SDS011;1766;53.490;10.174;2023-03-01T05:55:13;10.03;;;6.80;;
3503;SDS011;1766;53.490;10.174;2023-03-01T05:57:16;10.37;;;6.27;;
3503;SDS011;1766;53.490;10.174;2023-03-01T05:59:18;9.20;;;5.90;;
3503;SDS011;1766;53.490;10.174;2023-03-01T06:01:21;9.90;;;5.87;;
3503;SDS011;1766;53.490;10.174;2023-03-01T06:03:23;10.63;;;6.73;;
3503;SDS011;1766;53.490;10.174;2023-03-01T06:05:25;9.53;;;5.60;;
3503;SDS011;1766;53.490;10.174;2023-03-01T06:07:27;12.63;;;6.57;;
3503;SDS011;1766;53.490;10.174;2023-03-01T06:09:29;8.37;;;6.27;;
3503;SDS011;1766;53.490;10.174;2023-03-01T06:11:31;11.30;;;6.17;;
3503;SDS011;1766;53.490;10.174;2023-03-01T06:13:34;8.57;;;5.97;;
3503;SDS011;1766;53.490;10.174;2023-03-01T06:15:36;10.10;;;6.20;;
3503;SDS011;1766;53.490;10.174;2023-03-01T06:17:40;11.47;;;6.10;;
3503;SDS011;1766;53.490;10.174;2023-03-01T06:19:43;10.53;;;6.23;;
3503;SDS011;1766;53.490;10.174;2023-03-01T06:21:45;11.87;;;6.73;;
3503;SDS011;1766;53.490;10.174;2023-03-01T06:23:47;10.43;;;6.60;;
3503;SDS011;1766;53.490;10.174;2023-03-01T06:25:48;10.97;;;7.70;;
3503;SDS011;1766;53.490;10.174;2023-03-01T06:27:51;11.07;;;6.20;;
3503;SDS011;1766;53.490;10.174;2023-03-01T06:29:53;12.20;;;5.67;;
3503;SDS011;1766;53.490;10.174;2023-03-01T06:31:55;8.53;;;6.00;;
3503;SDS011;1766;53.490;10.174;2023-03-01T06:33:58;9.27;;;6.37;;
3503;SDS011;1766;53.490;10.174;2023-03-01T06:36:00;13.80;;;6.67;;
3503;SDS011;1766;53.490;10.174;2023-03-01T06:38:02;10.27;;;5.80;;
3503;SDS011;1766;53.490;10.174;2023-03-01T06:40:07;11.00;;;6.23;;
3503;SDS011;1766;53.490;10.174;2023-03-01T06:42:11;10.13;;;6.23;;
3503;SDS011;1766;53.490;10.174;2023-03-01T06:44:13;9.50;;;6.10;;
3503;SDS011;1766;53.490;10.174;2023-03-01T06:46:15;12.63;;;6.67;;
3503;SDS011;1766;53.490;10.174;2023-03-01T06:48:16;11.83;;;6.07;;
3503;SDS011;1766;53.490;10.174;2023-03-01T06:50:19;9.67;;;5.80;;
3503;SDS011;1766;53.490;10.174;2023-03-01T06:52:21;11.10;;;6.10;;
3503;SDS011;1766;53.490;10.174;2023-03-01T06:54:23;8.97;;;6.20;;
3503;SDS011;1766;53.490;10.174;2023-03-01T06:56:25;12.73;;;5.60;;
3503;SDS011;1766;53.490;10.174;2023-03-01T06:58:27;9.63;;;6.73;;
3503;SDS011;1766;53.490;10.174;2023-03-01T07:00:29;9.17;;;5.93;;
3503;SDS011;1766;53.490;10.174;2023-03-01T07:02:31;16.57;;;6.77;;
3503;SDS011;1766;53.490;10.174;2023-03-01T07:04:33;8.27;;;6.00;;
3503;SDS011;1766;53.490;10.174;2023-03-01T07:06:36;11.00;;;5.40;;
3503;SDS011;1766;53.490;10.174;2023-03-01T07:08:38;10.17;;;5.37;;
3503;SDS011;1766;53.490;10.174;2023-03-01T07:10:40;9.80;;;5.63;;
3503;SDS011;1766;53.490;10.174;2023-03-01T07:12:42;8.43;;;5.40;;
3503;SDS011;1766;53.490;10.174;2023-03-01T07:14:43;10.17;;;5.73;;
3503;SDS011;1766;53.490;10.174;2023-03-01T07:16:45;11.23;;;5.97;;
3503;SDS011;1766;53.490;10.174;2023-03-01T07:18:47;9.73;;;5.83;;
3503;SDS011;1766;53.490;10.174;2023-03-01T07:20:49;10.73;;;5.77;;
3503;SDS011;1766;53.490;10.174;2023-03-01T07:22:52;9.80;;;5.40;;
3503;SDS011;1766;53.490;10.174;2023-03-01T07:24:56;10.33;;;5.57;;
3503;SDS011;1766;53.490;10.174;2023-03-01T07:26:58;11.13;;;4.50;;
3503;SDS011;1766;53.490;10.174;2023-03-01T07:29:00;7.50;;;5.23;;
3503;SDS011;1766;53.490;10.174;2023-03-01T07:31:02;6.87;;;4.67;;
3503;SDS011;1766;53.490;10.174;2023-03-01T07:33:04;7.47;;;4.60;;
3503;SDS011;1766;53.490;10.174;2023-03-01T07:35:07;10.17;;;5.67;;
3503;SDS011;1766;53.490;10.174;2023-03-01T07:37:10;7.00;;;4.87;;
3503;SDS011;1766;53.490;10.174;2023-03-01T07:39:13;9.50;;;5.40;;
3503;SDS011;1766;53.490;10.174;2023-03-01T07:41:14;9.90;;;4.73;;
3503;SDS011;1766;53.490;10.174;2023-03-01T07:43:16;7.10;;;4.43;;
3503;SDS011;1766;53.490;10.174;2023-03-01T07:45:18;8.13;;;4.60;;
3503;SDS011;1766;53.490;10.174;2023-03-01T07:47:20;9.70;;;4.50;;
3503;SDS011;1766;53.490;10.174;2023-03-01T07:49:21;8.63;;;5.80;;
3503;SDS011;1766;53.490;10.174;2023-03-01T07:51:23;10.13;;;6.10;;
3503;SDS011;1766;53.490;10.174;2023-03-01T07:53:25;11.10;;;6.20;;
3503;SDS011;1766;53.490;10.174;2023-03-01T07:55:28;11.90;;;5.67;;
3503;SDS011;1766;53.490;10.174;2023-03-01T07:57:30;9.17;;;6.17;;
3503;SDS011;1766;53.490;10.174;2023-03-01T07:59:32;8.33;;;5.83;;
3503;SDS011;1766;53.490;10.174;2023-03-01T08:01:34;10.43;;;6.10;;
3503;SDS011;1766;53.490;10.174;2023-03-01T08:03:36;9.93;;;6.80;;
3503;SDS011;1766;53.490;10.174;2023-03-01T08:05:38;9.83;;;6.00;;
3503;SDS011;1766;53.490;10.174;2023-03-01T08:07:40;10.80;;;6.30;;
3503;SDS011;1766;53.490;10.174;2023-03-01T08:09:42;7.80;;;6.13;;
3503;SDS011;1766;53.490;10.174;2023-03-01T08:11:45;11.60;;;6.37;;
3503;SDS011;1766;53.490;10.174;2023-03-01T08:13:47;9.03;;;5.50;;
3503;SDS011;1766;53.490;10.174;2023-03-01T08:15:49;13.60;;;5.30;;
3503;SDS011;1766;53.490;10.174;2023-03-01T08:17:51;12.40;;;6.00;;
3503;SDS011;1766;53.490;10.174;2023-03-01T08:19:53;12.40;;;5.40;;
3503;SDS011;1766;53.490;10.174;2023-03-01T08:21:55;9.10;;;4.90;;
3503;SDS011;1766;53.490;10.174;2023-03-01T08:23:58;8.00;;;5.03;;
3503;SDS011;1766;53.490;10.174;2023-03-01T08:26:03;6.47;;;4.50;;
3503;SDS011;1766;53.490;10.174;2023-03-01T08:28:09;8.93;;;4.80;;
3503;SDS011;1766;53.490;10.174;2023-03-01T08:30:11;9.40;;;5.17;;
3503;SDS011;1766;53.490;10.174;2023-03-01T08:32:13;13.80;;;5.20;;
3503;SDS011;1766;53.490;10.174;2023-03-01T08:34:16;14.60;;;5.63;;
3503;SDS011;1766;53.490;10.174;2023-03-01T08:36:19;8.43;;;5.17;;
3503;SDS011;1766;53.490;10.174;2023-03-01T08:38:20;9.97;;;5.87;;
3503;SDS011;1766;53.490;10.174;2023-03-01T08:40:22;12.93;;;5.17;;
3503;SDS011;1766;53.490;10.174;2023-03-01T08:42:24;9.27;;;5.10;;
3503;SDS011;1766;53.490;10.174;2023-03-01T08:44:27;11.63;;;4.70;;
3503;SDS011;1766;53.490;10.174;2023-03-01T08:46:30;10.87;;;5.10;;
3503;SDS011;1766;53.490;10.174;2023-03-01T08:48:33;11.67;;;5.47;;
3503;SDS011;1766;53.490;10.174;2023-03-01T08:50:35;15.67;;;5.63;;
3503;SDS011;1766;53.490;10.174;2023-03-01T08:52:37;15.20;;;5.53;;
3503;SDS011;1766;53.490;10.174;2023-03-01T08:54:39;10.40;;;5.50;;
3503;SDS011;1766;53.490;10.174;2023-03-01T08:56:41;15.70;;;5.20;;
3503;SDS011;1766;53.490;10.174;2023-03-01T08:58:43;10.97;;;5.10;;
3503;SDS011;1766;53.490;10.174;2023-03-01T09:00:47;8.67;;;5.10;;
3503;SDS011;1766;53.490;10.174;2023-03-01T09:02:49;7.10;;;5.00;;
3503;SDS011;1766;53.490;10.174;2023-03-01T09:04:51;11.23;;;5.67;;
3503;SDS011;1766;53.490;10.174;2023-03-01T09:06:52;10.60;;;5.30;;
3503;SDS011;1766;53.490;10.174;2023-03-01T09:08:54;10.30;;;5.10;;
3503;SDS011;1766;53.490;10.174;2023-03-01T09:10:56;13.30;;;4.77;;
3503;SDS011;1766;53.490;10.174;2023-03-01T09:12:58;12.13;;;4.50;;
3503;SDS011;1766;53.490;10.174;2023-03-01T09:14:59;11.60;;;5.47;;
3503;SDS011;1766;53.490;10.174;2023-03-01T09:17:02;10.13;;;5.50;;
3503;SDS011;1766;53.490;10.174;2023-03-01T09:19:04;16.03;;;5.63;;
3503;SDS011;1766;53.490;10.174;2023-03-01T09:21:07;10.40;;;5.20;;
3503;SDS011;1766;53.490;10.174;2023-03-01T09:23:11;10.23;;;5.03;;
3503;SDS011;1766;53.490;10.174;2023-03-01T09:25:13;14.97;;;5.17;;
3503;SDS011;1766;53.490;10.174;2023-03-01T09:27:21;10.47;;;5.93;;
3503;SDS011;1766;53.490;10.174;2023-03-01T09:29:24;13.73;;;5.80;;
3503;SDS011;1766;53.490;10.174;2023-03-01T09:31:26;13.17;;;5.93;;
3503;SDS011;1766;53.490;10.174;2023-03-01T09:33:30;18.50;;;5.53;;
3503;SDS011;1766;53.490;10.174;2023-03-01T09:35:33;16.07;;;5.53;;
3503;SDS011;1766;53.490;10.174;2023-03-01T09:37:35;14.50;;;6.33;;
3503;SDS011;1766;53.490;10.174;2023-03-01T09:39:38;13.03;;;6.57;;
3503;SDS011;1766;53.490;10.174;2023-03-01T09:41:44;10.20;;;5.60;;
3503;SDS011;1766;53.490;10.174;2023-03-01T09:43:51;11.90;;;5.93;;
3503;SDS011;1766;53.490;10.174;2023-03-01T09:45:59;12.60;;;6.37;;
3503;SDS011;1766;53.490;10.174;2023-03-01T09:48:06;12.63;;;5.70;;
3503;SDS011;1766;53.490;10.174;2023-03-01T09:50:19;12.50;;;6.30;;
3503;SDS011;1766;53.490;10.174;2023-03-01T09:52:23;14.20;;;6.53;;
3503;SDS011;1766;53.490;10.174;2023-03-01T09:54:31;16.20;;;6.53;;
3503;SDS011;1766;53.490;10.174;2023-03-01T09:56:34;11.60;;;7.07;;
3503;SDS011;1766;53.490;10.174;2023-03-01T09:58:42;12.43;;;7.43;;
3503;SDS011;1766;53.490;10.174;2023-03-01T10:00:52;14.10;;;7.93;;
3503;SDS011;1766;53.490;10.174;2023-03-01T10:02:58;24.70;;;8.53;;
3503;SDS011;1766;53.490;10.174;2023-03-01T10:05:13;16.83;;;9.17;;
3503;SDS011;1766;53.490;10.174;2023-03-01T10:07:37;12.93;;;7.63;;
3503;SDS011;1766;53.490;10.174;2023-03-01T10:09:49;11.83;;;8.23;;
3503;SDS011;1766;53.490;10.174;2023-03-01T10:11:52;14.73;;;7.33;;
3503;SDS011;1766;53.490;10.174;2023-03-01T10:13:57;15.10;;;6.70;;
3503;SDS011;1766;53.490;10.174;2023-03-01T10:16:05;11.37;;;7.37;;
3503;SDS011;1766;53.490;10.174;2023-03-01T10:18:14;13.00;;;7.57;;
3503;SDS011;1766;53.490;10.174;2023-03-01T10:20:21;13.67;;;8.00;;
3503;SDS011;1766;53.490;10.174;2023-03-01T10:22:27;9.73;;;7.57;;
3503;SDS011;1766;53.490;10.174;2023-03-01T10:24:31;10.30;;;6.80;;
3503;SDS011;1766;53.490;10.174;2023-03-01T10:26:40;12.97;;;7.40;;
3503;SDS011;1766;53.490;10.174;2023-03-01T10:28:54;11.90;;;7.80;;
3503;SDS011;1766;53.490;10.174;2023-03-01T10:31:04;11.70;;;7.43;;
3503;SDS011;1766;53.490;10.174;2023-03-01T10:33:14;15.60;;;7.30;;
3503;SDS011;1766;53.490;10.174;2023-03-01T10:35:23;11.70;;;7.33;;
3503;SDS011;1766;53.490;10.174;2023-03-01T10:37:27;13.47;;;7.07;;
3503;SDS011;1766;53.490;10.174;2023-03-01T10:39:29;8.60;;;6.83;;
3503;SDS011;1766;53.490;10.174;2023-03-01T10:41:31;23.30;;;8.13;;
3503;SDS011;1766;53.490;10.174;2023-03-01T10:43:40;13.07;;;7.20;;
3503;SDS011;1766;53.490;10.174;2023-03-01T10:45:46;13.00;;;7.33;;
3503;SDS011;1766;53.490;10.174;2023-03-01T10:47:48;11.80;;;7.53;;
3503;SDS011;1766;53.490;10.174;2023-03-01T10:50:17;15.27;;;6.97;;
3503;SDS011;1766;53.490;10.174;2023-03-01T10:52:23;11.83;;;7.43;;
3503;SDS011;1766;53.490;10.174;2023-03-01T10:54:29;12.77;;;7.53;;
3503;SDS011;1766;53.490;10.174;2023-03-01T10:56:45;13.90;;;7.57;;
3503;SDS011;1766;53.490;10.174;2023-03-01T10:58:56;10.13;;;7.17;;
3503;SDS011;1766;53.490;10.174;2023-03-01T11:01:00;12.03;;;7.73;;
3503;SDS011;1766;53.490;10.174;2023-03-01T11:03:10;11.00;;;7.40;;
3503;SDS011;1766;53.490;10.174;2023-03-01T11:05:16;11.23;;;7.50;;
3503;SDS011;1766;53.490;10.174;2023-03-01T11:07:25;10.90;;;6.43;;
3503;SDS011;1766;53.490;10.174;2023-03-01T11:09:30;10.27;;;6.90;;
3503;SDS011;1766;53.490;10.174;2023-03-01T11:11:37;14.23;;;8.23;;
3503;SDS011;1766;53.490;10.174;2023-03-01T11:13:40;9.00;;;6.30;;
3503;SDS011;1766;53.490;10.174;2023-03-01T11:15:58;6.93;;;5.03;;
3503;SDS011;1766;53.490;10.174;2023-03-01T11:18:01;10.00;;;5.63;;
3503;SDS011;1766;53.490;10.174;2023-03-01T11:20:07;13.70;;;8.00;;
3503;SDS011;1766;53.490;10.174;2023-03-01T11:22:25;9.27;;;5.50;;
3503;SDS011;1766;53.490;10.174;2023-03-01T11:24:30;11.03;;;5.60;;
3503;SDS011;1766;53.490;10.174;2023-03-01T11:26:38;8.10;;;6.37;;
3503;SDS011;1766;53.490;10.174;2023-03-01T11:28:43;8.37;;;6.17;;
3503;SDS011;1766;53.490;10.174;2023-03-01T11:30:53;10.40;;;6.23;;
3503;SDS011;1766;53.490;10.174;2023-03-01T11:33:02;8.73;;;6.10;;
3503;SDS011;1766;53.490;10.174;2023-03-01T11:35:20;8.43;;;5.73;;
3503;SDS011;1766;53.490;10.174;2023-03-01T11:37:30;8.80;;;5.90;;
3503;SDS011;1766;53.490;10.174;2023-03-01T11:39:37;8.87;;;5.90;;
3503;SDS011;1766;53.490;10.174;2023-03-01T11:41:46;8.50;;;5.60;;
3503;SDS011;1766;53.490;10.174;2023-03-01T11:43:58;8.50;;;5.80;;
3503;SDS011;1766;53.490;10.174;2023-03-01T11:48:45;11.73;;;5.40;;
3503;SDS011;1766;53.490;10.174;2023-03-01T11:50:58;7.00;;;5.33;;
3503;SDS011;1766;53.490;10.174;2023-03-01T11:53:11;8.97;;;6.67;;
3503;SDS011;1766;53.490;10.174;2023-03-01T11:55:30;8.03;;;6.10;;
3503;SDS011;1766;53.490;10.174;2023-03-01T11:57:55;6.43;;;5.47;;
3503;SDS011;1766;53.490;10.174;2023-03-01T12:00:15;9.40;;;6.70;;
3503;SDS011;1766;53.490;10.174;2023-03-01T12:02:40;8.03;;;5.60;;
3503;SDS011;1766;53.490;10.174;2023-03-01T12:05:07;10.53;;;6.70;;
3503;SDS011;1766;53.490;10.174;2023-03-01T12:07:23;6.40;;;5.33;;
3503;SDS011;1766;53.490;10.174;2023-03-01T12:09:38;6.23;;;5.43;;
3503;SDS011;1766;53.490;10.174;2023-03-01T12:11:57;6.77;;;5.33;;
3503;SDS011;1766;53.490;10.174;2023-03-01T12:14:21;7.20;;;5.27;;
3503;SDS011;1766;53.490;10.174;2023-03-01T12:16:50;9.50;;;5.70;;
3503;SDS011;1766;53.490;10.174;2023-03-01T12:19:27;7.57;;;5.50;;
3503;SDS011;1766;53.490;10.174;2023-03-01T12:21:49;8.30;;;5.30;;
3503;SDS011;1766;53.490;10.174;2023-03-01T12:24:15;5.47;;;4.80;;
3503;SDS011;1766;53.490;10.174;2023-03-01T12:26:37;9.00;;;5.30;;
3503;SDS011;1766;53.490;10.174;2023-03-01T12:28:48;6.67;;;5.30;;
3503;SDS011;1766;53.490;10.174;2023-03-01T12:31:04;8.43;;;5.37;;
3503;SDS011;1766;53.490;10.174;2023-03-01T12:33:33;9.30;;;6.93;;
3503;SDS011;1766;53.490;10.174;2023-03-01T12:35:50;8.57;;;7.27;;